sensor_id;sensor_type;location;lat;lon;timestamp;P1;durP1;ratioP1;P2;durP2;ratioP2
4486;SDS011;2256;48.740;9.106;2023-10-19T00:02:12;14.70;;;8.10;;
4486;SDS011;2256;48.740;9.106;2023-10-19T00:04:40;13.47;;;7.43;;
4486;SDS011;2256;48.740;9.106;2023-10-19T00:07:07;15.50;;;7.90;;
4486;SDS011;2256;48.740;9.106;2023-10-19T00:09:40;14.53;;;7.97;;
4486;SDS011;2256;48.740;9.106;2023-10-19T00:12:10;22.60;;;6.57;;
4486;SDS011;2256;48.740;9.106;2023-10-19T00:14:39;11.67;;;6.70;;
4486;SDS011;2256;48.740;9.106;2023-10-19T00:17:05;12.33;;;6.67;;
4486;SDS011;2256;48.740;9.106;2023-10-19T00:19:35;17.00;;;6.50;;
4486;SDS011;2256;48.740;9.106;2023-10-19T00:22:04;9.40;;;6.07;;
4486;SDS011;2256;48.740;9.106;2023-10-19T00:24:40;9.73;;;5.40;;
4486;SDS011;2256;48.740;9.106;2023-10-19T00:27:06;13.83;;;5.63;;
4486;SDS011;2256;48.740;9.106;2023-10-19T00:29:42;7.53;;;4.97;;
4486;SDS011;2256;48.740;9.106;2023-10-19T00:32:13;9.57;;;4.90;;
4486;SDS011;2256;48.740;9.106;2023-10-19T00:34:43;16.57;;;5.43;;
4486;SDS011;2256;48.740;9.106;2023-10-19T00:37:16;11.30;;;4.90;;
4486;SDS011;2256;48.740;9.106;2023-10-19T00:39:52;7.07;;;4.00;;
4486;SDS011;2256;48.740;9.106;2023-10-19T00:42:20;7.27;;;4.50;;
4486;SDS011;2256;48.740;9.106;2023-10-19T00:44:52;9.30;;;4.07;;
4486;SDS011;2256;48.740;9.106;2023-10-19T00:47:26;8.47;;;4.57;;
4486;SDS011;2256;48.740;9.106;2023-10-19T00:50:00;7.40;;;4.60;;
4486;SDS011;2256;48.740;9.106;2023-10-19T00:52:30;9.60;;;4.10;;
4486;SDS011;2256;48.740;9.106;2023-10-19T00:55:07;9.47;;;4.73;;
4486;SDS011;2256;48.740;9.106;2023-10-19T00:57:34;13.03;;;4.37;;
4486;SDS011;2256;48.740;9.106;2023-10-19T01:00:04;7.40;;;3.93;;
4486;SDS011;2256;48.740;9.106;2023-10-19T01:02:46;8.53;;;4.33;;
4486;SDS011;2256;48.740;9.106;2023-10-19T01:05:12;9.07;;;4.47;;
4486;SDS011;2256;48.740;9.106;2023-10-19T01:07:39;12.90;;;4.30;;
4486;SDS011;2256;48.740;9.106;2023-10-19T01:10:07;16.10;;;5.23;;
4486;SDS011;2256;48.740;9.106;2023-10-19T01:12:36;7.80;;;4.37;;
4486;SDS011;2256;48.740;9.106;2023-10-19T01:15:07;9.63;;;4.20;;
4486;SDS011;2256;48.740;9.106;2023-10-19T01:17:39;7.43;;;4.37;;
4486;SDS011;2256;48.740;9.106;2023-10-19T01:20:09;5.83;;;3.80;;
4486;SDS011;2256;48.740;9.106;2023-10-19T01:22:55;6.83;;;4.80;;
4486;SDS011;2256;48.740;9.106;2023-10-19T01:25:43;4.27;;;3.70;;
4486;SDS011;2256;48.740;9.106;2023-10-19T01:28:15;8.80;;;4.80;;
4486;SDS011;2256;48.740;9.106;2023-10-19T01:30:42;10.70;;;4.93;;
4486;SDS011;2256;48.740;9.106;2023-10-19T01:33:10;6.83;;;4.13;;
4486;SDS011;2256;48.740;9.106;2023-10-19T01:35:40;9.57;;;3.70;;
4486;SDS011;2256;48.740;9.106;2023-10-19T01:38:27;6.23;;;3.90;;
4486;SDS011;2256;48.740;9.106;2023-10-19T01:40:56;7.80;;;4.30;;
4486;SDS011;2256;48.740;9.106;2023-10-19T01:43:24;10.13;;;4.90;;
4486;SDS011;2256;48.740;9.106;2023-10-19T01:45:55;13.40;;;4.67;;
4486;SDS011;2256;48.740;9.106;2023-10-19T01:48:21;9.00;;;4.63;;
4486;SDS011;2256;48.740;9.106;2023-10-19T01:50:57;12.77;;;4.20;;
4486;SDS011;2256;48.740;9.106;2023-10-19T01:53:23;8.23;;;4.70;;
4486;SDS011;2256;48.740;9.106;2023-10-19T01:55:52;8.87;;;4.20;;
4486;SDS011;2256;48.740;9.106;2023-10-19T01:58:23;8.80;;;4.87;;
4486;SDS011;2256;48.740;9.106;2023-10-19T02:00:51;11.13;;;3.67;;
4486;SDS011;2256;48.740;9.106;2023-10-19T02:03:20;6.87;;;3.97;;
4486;SDS011;2256;48.740;9.106;2023-10-19T02:05:48;6.90;;;4.30;;
4486;SDS011;2256;48.740;9.106;2023-10-19T02:08:15;18.43;;;4.00;;
4486;SDS011;2256;48.740;9.106;2023-10-19T02:10:45;15.80;;;4.57;;
4486;SDS011;2256;48.740;9.106;2023-10-19T02:13:13;8.47;;;4.47;;
4486;SDS011;2256;48.740;9.106;2023-10-19T02:15:42;9.20;;;4.60;;
4486;SDS011;2256;48.740;9.106;2023-10-19T02:18:09;8.03;;;4.20;;
4486;SDS011;2256;48.740;9.106;2023-10-19T02:20:36;12.03;;;4.13;;
4486;SDS011;2256;48.740;9.106;2023-10-19T02:23:06;9.40;;;4.40;;
4486;SDS011;2256;48.740;9.106;2023-10-19T02:25:34;11.50;;;3.50;;
4486;SDS011;2256;48.740;9.106;2023-10-19T02:28:02;15.60;;;4.40;;
4486;SDS011;2256;48.740;9.106;2023-10-19T02:30:33;8.70;;;4.57;;
4486;SDS011;2256;48.740;9.106;2023-10-19T02:32:59;11.37;;;4.27;;
4486;SDS011;2256;48.740;9.106;2023-10-19T02:35:26;11.53;;;4.50;;
4486;SDS011;2256;48.740;9.106;2023-10-19T02:37:53;9.23;;;4.30;;
4486;SDS011;2256;48.740;9.106;2023-10-19T02:40:19;9.47;;;4.03;;
4486;SDS011;2256;48.740;9.106;2023-10-19T02:42:48;7.33;;;4.03;;
4486;SDS011;2256;48.740;9.106;2023-10-19T02:45:15;8.20;;;4.50;;
4486;SDS011;2256;48.740;9.106;2023-10-19T02:47:45;7.90;;;4.33;;
4486;SDS011;2256;48.740;9.106;2023-10-19T02:50:11;9.40;;;4.27;;
4486;SDS011;2256;48.740;9.106;2023-10-19T02:52:42;7.60;;;3.80;;
4486;SDS011;2256;48.740;9.106;2023-10-19T02:55:08;6.97;;;4.43;;
4486;SDS011;2256;48.740;9.106;2023-10-19T02:57:36;11.80;;;4.00;;
4486;SDS011;2256;48.740;9.106;2023-10-19T03:00:04;5.33;;;3.80;;
4486;SDS011;2256;48.740;9.106;2023-10-19T03:02:38;7.00;;;5.10;;
4486;SDS011;2256;48.740;9.106;2023-10-19T03:05:06;7.00;;;4.20;;
4486;SDS011;2256;48.740;9.106;2023-10-19T03:07:39;10.30;;;4.10;;
4486;SDS011;2256;48.740;9.106;2023-10-19T03:10:06;14.90;;;3.93;;
4486;SDS011;2256;48.740;9.106;2023-10-19T03:12:35;12.93;;;4.53;;
4486;SDS011;2256;48.740;9.106;2023-10-19T03:15:01;9.20;;;4.97;;
4486;SDS011;2256;48.740;9.106;2023-10-19T03:17:30;13.30;;;4.30;;
4486;SDS011;2256;48.740;9.106;2023-10-19T03:19:56;8.60;;;4.77;;
4486;SDS011;2256;48.740;9.106;2023-10-19T03:22:25;10.43;;;4.80;;
4486;SDS011;2256;48.740;9.106;2023-10-19T03:24:52;20.20;;;5.40;;
4486;SDS011;2256;48.740;9.106;2023-10-19T03:27:45;7.30;;;4.47;;
4486;SDS011;2256;48.740;9.106;2023-10-19T03:30:11;11.17;;;4.40;;
4486;SDS011;2256;48.740;9.106;2023-10-19T03:32:41;10.93;;;4.87;;
4486;SDS011;2256;48.740;9.106;2023-10-19T03:35:07;9.33;;;4.10;;
4486;SDS011;2256;48.740;9.106;2023-10-19T03:37:41;12.00;;;4.50;;
4486;SDS011;2256;48.740;9.106;2023-10-19T03:40:09;11.60;;;4.50;;
4486;SDS011;2256;48.740;9.106;2023-10-19T03:42:40;18.13;;;5.80;;
4486;SDS011;2256;48.740;9.106;2023-10-19T03:45:09;10.13;;;4.37;;
4486;SDS011;2256;48.740;9.106;2023-10-19T03:47:38;10.80;;;4.60;;
4486;SDS011;2256;48.740;9.106;2023-10-19T03:50:08;6.43;;;4.20;;
4486;SDS011;2256;48.740;9.106;2023-10-19T03:52:39;13.00;;;5.10;;
4486;SDS011;2256;48.740;9.106;2023-10-19T03:55:08;14.30;;;4.13;;
4486;SDS011;2256;48.740;9.106;2023-10-19T03:57:40;13.17;;;4.67;;
4486;SDS011;2256;48.740;9.106;2023-10-19T04:00:12;14.43;;;4.50;;
4486;SDS011;2256;48.740;9.106;2023-10-19T04:02:44;9.33;;;4.33;;
4486;SDS011;2256;48.740;9.106;2023-10-19T04:05:11;18.20;;;5.23;;
4486;SDS011;2256;48.740;9.106;2023-10-19T04:07:47;8.83;;;4.23;;
4486;SDS011;2256;48.740;9.106;2023-10-19T04:10:20;10.17;;;4.70;;
4486;SDS011;2256;48.740;9.106;2023-10-19T04:13:03;7.57;;;4.37;;
4486;SDS011;2256;48.740;9.106;2023-10-19T04:15:34;8.30;;;5.13;;
4486;SDS011;2256;48.740;9.106;2023-10-19T04:18:01;24.13;;;5.20;;
4486;SDS011;2256;48.740;9.106;2023-10-19T04:20:33;11.30;;;4.87;;
4486;SDS011;2256;48.740;9.106;2023-10-19T04:23:09;11.60;;;4.20;;
4486;SDS011;2256;48.740;9.106;2023-10-19T04:25:39;8.80;;;4.47;;
4486;SDS011;2256;48.740;9.106;2023-10-19T04:28:07;17.00;;;4.90;;
4486;SDS011;2256;48.740;9.106;2023-10-19T04:30:34;6.93;;;4.17;;
4486;SDS011;2256;48.740;9.106;2023-10-19T04:33:02;7.93;;;4.23;;
4486;SDS011;2256;48.740;9.106;2023-10-19T04:35:34;6.07;;;4.10;;
4486;SDS011;2256;48.740;9.106;2023-10-19T04:38:03;8.93;;;4.53;;
4486;SDS011;2256;48.740;9.106;2023-10-19T04:40:32;8.87;;;4.20;;
4486;SDS011;2256;48.740;9.106;2023-10-19T04:43:02;14.23;;;4.47;;
4486;SDS011;2256;48.740;9.106;2023-10-19T04:45:29;8.73;;;4.63;;
4486;SDS011;2256;48.740;9.106;2023-10-19T04:47:56;17.00;;;4.10;;
4486;SDS011;2256;48.740;9.106;2023-10-19T04:50:23;9.40;;;4.47;;
4486;SDS011;2256;48.740;9.106;2023-10-19T04:52:50;11.27;;;4.83;;
4486;SDS011;2256;48.740;9.106;2023-10-19T04:55:16;8.83;;;4.03;;
4486;SDS011;2256;48.740;9.106;2023-10-19T04:57:45;12.30;;;3.87;;
4486;SDS011;2256;48.740;9.106;2023-10-19T05:00:12;9.80;;;3.80;;
4486;SDS011;2256;48.740;9.106;2023-10-19T05:02:40;6.83;;;4.20;;
4486;SDS011;2256;48.740;9.106;2023-10-19T05:05:07;11.50;;;3.70;;
4486;SDS011;2256;48.740;9.106;2023-10-19T05:07:34;9.20;;;4.47;;
4486;SDS011;2256;48.740;9.106;2023-10-19T05:10:01;4.80;;;3.60;;
4486;SDS011;2256;48.740;9.106;2023-10-19T05:12:30;7.63;;;4.17;;
4486;SDS011;2256;48.740;9.106;2023-10-19T05:14:59;13.00;;;4.30;;
4486;SDS011;2256;48.740;9.106;2023-10-19T05:17:25;9.20;;;3.73;;
4486;SDS011;2256;48.740;9.106;2023-10-19T05:19:52;5.33;;;4.07;;
4486;SDS011;2256;48.740;9.106;2023-10-19T05:22:19;7.90;;;4.20;;
4486;SDS011;2256;48.740;9.106;2023-10-19T05:24:46;9.57;;;4.30;;
4486;SDS011;2256;48.740;9.106;2023-10-19T05:27:13;8.20;;;3.70;;
4486;SDS011;2256;48.740;9.106;2023-10-19T05:29:40;11.87;;;4.60;;
4486;SDS011;2256;48.740;9.106;2023-10-19T05:32:08;10.80;;;4.07;;
4486;SDS011;2256;48.740;9.106;2023-10-19T05:34:35;8.87;;;3.50;;
4486;SDS011;2256;48.740;9.106;2023-10-19T05:37:02;11.53;;;4.70;;
4486;SDS011;2256;48.740;9.106;2023-10-19T05:39:30;8.20;;;4.33;;
4486;SDS011;2256;48.740;9.106;2023-10-19T05:41:58;6.97;;;4.20;;
4486;SDS011;2256;48.740;9.106;2023-10-19T05:44:26;6.80;;;3.80;;
4486;SDS011;2256;48.740;9.106;2023-10-19T05:46:53;7.70;;;4.60;;
4486;SDS011;2256;48.740;9.106;2023-10-19T05:49:23;12.00;;;4.50;;
4486;SDS011;2256;48.740;9.106;2023-10-19T05:51:50;10.00;;;4.20;;
4486;SDS011;2256;48.740;9.106;2023-10-19T05:54:17;16.80;;;5.10;;
4486;SDS011;2256;48.740;9.106;2023-10-19T05:56:44;15.57;;;4.20;;
4486;SDS011;2256;48.740;9.106;2023-10-19T05:59:11;7.60;;;3.77;;
4486;SDS011;2256;48.740;9.106;2023-10-19T06:01:38;8.17;;;4.10;;
4486;SDS011;2256;48.740;9.106;2023-10-19T06:04:06;10.90;;;5.23;;
4486;SDS011;2256;48.740;9.106;2023-10-19T06:06:34;11.00;;;4.83;;
4486;SDS011;2256;48.740;9.106;2023-10-19T06:09:02;9.43;;;4.83;;
4486;SDS011;2256;48.740;9.106;2023-10-19T06:11:29;9.43;;;4.20;;
4486;SDS011;2256;48.740;9.106;2023-10-19T06:13:57;6.33;;;4.00;;
4486;SDS011;2256;48.740;9.106;2023-10-19T06:16:25;6.20;;;4.30;;
4486;SDS011;2256;48.740;9.106;2023-10-19T06:18:53;6.83;;;4.80;;
4486;SDS011;2256;48.740;9.106;2023-10-19T06:21:20;10.47;;;4.60;;
4486;SDS011;2256;48.740;9.106;2023-10-19T06:23:49;8.00;;;4.43;;
4486;SDS011;2256;48.740;9.106;2023-10-19T06:26:17;15.80;;;4.40;;
4486;SDS011;2256;48.740;9.106;2023-10-19T06:28:45;9.07;;;4.90;;
4486;SDS011;2256;48.740;9.106;2023-10-19T06:31:12;6.97;;;4.50;;
4486;SDS011;2256;48.740;9.106;2023-10-19T06:33:40;6.20;;;4.30;;
4486;SDS011;2256;48.740;9.106;2023-10-19T06:36:07;10.40;;;4.70;;
4486;SDS011;2256;48.740;9.106;2023-10-19T06:38:34;8.03;;;4.57;;
4486;SDS011;2256;48.740;9.106;2023-10-19T06:41:02;8.50;;;4.17;;
4486;SDS011;2256;48.740;9.106;2023-10-19T06:43:37;7.90;;;3.83;;
4486;SDS011;2256;48.740;9.106;2023-10-19T06:46:04;8.13;;;4.13;;
4486;SDS011;2256;48.740;9.106;2023-10-19T06:48:31;7.53;;;4.63;;
4486;SDS011;2256;48.740;9.106;2023-10-19T06:50:58;7.53;;;3.87;;
4486;SDS011;2256;48.740;9.106;2023-10-19T06:53:25;7.30;;;3.80;;
4486;SDS011;2256;48.740;9.106;2023-10-19T06:55:52;7.93;;;4.40;;
4486;SDS011;2256;48.740;9.106;2023-10-19T06:58:21;8.13;;;3.80;;
4486;SDS011;2256;48.740;9.106;2023-10-19T07:00:51;9.93;;;4.70;;
4486;SDS011;2256;48.740;9.106;2023-10-19T07:03:24;16.17;;;4.13;;
4486;SDS011;2256;48.740;9.106;2023-10-19T07:05:53;10.70;;;3.80;;
4486;SDS011;2256;48.740;9.106;2023-10-19T07:08:21;9.80;;;4.50;;
4486;SDS011;2256;48.740;9.106;2023-10-19T07:10:48;8.27;;;3.70;;
4486;SDS011;2256;48.740;9.106;2023-10-19T07:13:15;6.20;;;3.83;;
4486;SDS011;2256;48.740;9.106;2023-10-19T07:15:45;7.97;;;4.10;;
4486;SDS011;2256;48.740;9.106;2023-10-19T07:18:14;9.37;;;3.70;;
4486;SDS011;2256;48.740;9.106;2023-10-19T07:20:41;6.60;;;3.30;;
4486;SDS011;2256;48.740;9.106;2023-10-19T07:23:09;6.30;;;3.90;;
4486;SDS011;2256;48.740;9.106;2023-10-19T07:25:43;8.50;;;3.50;;
4486;SDS011;2256;48.740;9.106;2023-10-19T07:28:12;11.27;;;3.63;;
4486;SDS011;2256;48.740;9.106;2023-10-19T07:30:40;19.43;;;4.17;;
4486;SDS011;2256;48.740;9.106;2023-10-19T07:33:09;10.10;;;3.77;;
4486;SDS011;2256;48.740;9.106;2023-10-19T07:35:36;7.40;;;3.17;;
4486;SDS011;2256;48.740;9.106;2023-10-19T07:38:04;11.63;;;3.90;;
4486;SDS011;2256;48.740;9.106;2023-10-19T07:40:32;4.97;;;3.57;;
4486;SDS011;2256;48.740;9.106;2023-10-19T07:42:59;7.00;;;3.63;;
4486;SDS011;2256;48.740;9.106;2023-10-19T07:45:28;12.53;;;3.80;;
4486;SDS011;2256;48.740;9.106;2023-10-19T07:47:56;7.33;;;3.50;;
4486;SDS011;2256;48.740;9.106;2023-10-19T07:50:32;5.23;;;3.27;;
4486;SDS011;2256;48.740;9.106;2023-10-19T07:52:59;7.83;;;3.77;;
4486;SDS011;2256;48.740;9.106;2023-10-19T07:55:26;9.73;;;3.60;;
4486;SDS011;2256;48.740;9.106;2023-10-19T07:57:53;7.03;;;3.23;;
4486;SDS011;2256;48.740;9.106;2023-10-19T08:00:22;9.63;;;3.80;;
4486;SDS011;2256;48.740;9.106;2023-10-19T08:02:49;8.10;;;3.60;;
4486;SDS011;2256;48.740;9.106;2023-10-19T08:05:16;5.70;;;3.20;;
4486;SDS011;2256;48.740;9.106;2023-10-19T08:07:45;4.30;;;3.03;;
4486;SDS011;2256;48.740;9.106;2023-10-19T08:10:13;10.20;;;3.67;;
4486;SDS011;2256;48.740;9.106;2023-10-19T08:12:41;6.20;;;2.97;;
4486;SDS011;2256;48.740;9.106;2023-10-19T08:15:10;4.70;;;2.90;;
4486;SDS011;2256;48.740;9.106;2023-10-19T08:17:39;6.83;;;3.40;;
4486;SDS011;2256;48.740;9.106;2023-10-19T08:20:06;3.90;;;3.20;;
4486;SDS011;2256;48.740;9.106;2023-10-19T08:22:36;3.83;;;2.80;;
4486;SDS011;2256;48.740;9.106;2023-10-19T08:25:04;3.87;;;2.40;;
4486;SDS011;2256;48.740;9.106;2023-10-19T08:27:37;4.87;;;2.97;;
4486;SDS011;2256;48.740;9.106;2023-10-19T08:30:05;3.63;;;2.43;;
4486;SDS011;2256;48.740;9.106;2023-10-19T08:32:33;4.40;;;2.90;;
4486;SDS011;2256;48.740;9.106;2023-10-19T08:35:01;5.53;;;3.50;;
4486;SDS011;2256;48.740;9.106;2023-10-19T08:37:27;11.27;;;3.10;;
4486;SDS011;2256;48.740;9.106;2023-10-19T08:39:54;5.60;;;2.70;;
4486;SDS011;2256;48.740;9.106;2023-10-19T08:42:23;4.17;;;2.63;;
4486;SDS011;2256;48.740;9.106;2023-10-19T08:44:50;3.93;;;2.40;;
4486;SDS011;2256;48.740;9.106;2023-10-19T08:47:17;5.50;;;2.57;;
4486;SDS011;2256;48.740;9.106;2023-10-19T08:49:44;3.00;;;2.30;;
4486;SDS011;2256;48.740;9.106;2023-10-19T08:52:11;5.10;;;2.47;;
4486;SDS011;2256;48.740;9.106;2023-10-19T08:54:40;2.83;;;2.30;;
4486;SDS011;2256;48.740;9.106;2023-10-19T08:57:06;3.40;;;2.10;;
4486;SDS011;2256;48.740;9.106;2023-10-19T08:59:35;7.17;;;2.97;;
4486;SDS011;2256;48.740;9.106;2023-10-19T09:02:03;4.30;;;2.27;;
4486;SDS011;2256;48.740;9.106;2023-10-19T09:04:31;5.33;;;2.60;;
4486;SDS011;2256;48.740;9.106;2023-10-19T09:06:58;5.60;;;2.23;;
4486;SDS011;2256;48.740;9.106;2023-10-19T09:09:31;5.77;;;2.83;;
4486;SDS011;2256;48.740;9.106;2023-10-19T09:11:59;2.70;;;1.93;;
4486;SDS011;2256;48.740;9.106;2023-10-19T09:14:30;4.37;;;2.13;;
4486;SDS011;2256;48.740;9.106;2023-10-19T09:17:00;2.50;;;1.63;;
4486;SDS011;2256;48.740;9.106;2023-10-19T09:19:35;3.77;;;2.20;;
4486;SDS011;2256;48.740;9.106;2023-10-19T09:22:03;3.40;;;2.23;;
4486;SDS011;2256;48.740;9.106;2023-10-19T09:24:32;3.90;;;2.17;;
4486;SDS011;2256;48.740;9.106;2023-10-19T09:27:01;2.20;;;1.60;;
4486;SDS011;2256;48.740;9.106;2023-10-19T09:29:29;4.30;;;1.73;;
4486;SDS011;2256;48.740;9.106;2023-10-19T09:31:56;3.57;;;1.77;;
4486;SDS011;2256;48.740;9.106;2023-10-19T09:34:28;4.47;;;1.80;;
4486;SDS011;2256;48.740;9.106;2023-10-19T09:36:58;2.57;;;1.60;;
4486;SDS011;2256;48.740;9.106;2023-10-19T09:39:26;3.77;;;1.80;;
4486;SDS011;2256;48.740;9.106;2023-10-19T09:41:59;2.93;;;1.93;;
4486;SDS011;2256;48.740;9.106;2023-10-19T09:44:30;4.67;;;2.10;;
4486;SDS011;2256;48.740;9.106;2023-10-19T09:47:09;5.57;;;1.93;;
4486;SDS011;2256;48.740;9.106;2023-10-19T09:49:38;6.43;;;2.13;;
4486;SDS011;2256;48.740;9.106;2023-10-19T09:52:06;3.70;;;1.90;;
4486;SDS011;2256;48.740;9.106;2023-10-19T09:54:38;8.40;;;2.30;;
4486;SDS011;2256;48.740;9.106;2023-10-19T09:57:14;2.70;;;1.93;;
4486;SDS011;2256;48.740;9.106;2023-10-19T09:59:49;3.63;;;1.97;;
4486;SDS011;2256;48.740;9.106;2023-10-19T10:02:24;3.57;;;2.00;;
4486;SDS011;2256;48.740;9.106;2023-10-19T10:04:54;5.10;;;2.20;;
4486;SDS011;2256;48.740;9.106;2023-10-19T10:07:22;9.70;;;2.40;;
4486;SDS011;2256;48.740;9.106;2023-10-19T10:09:50;3.30;;;1.97;;
4486;SDS011;2256;48.740;9.106;2023-10-19T10:12:18;5.00;;;2.43;;
4486;SDS011;2256;48.740;9.106;2023-10-19T10:14:56;6.20;;;2.50;;
4486;SDS011;2256;48.740;9.106;2023-10-19T10:17:25;4.70;;;2.17;;
4486;SDS011;2256;48.740;9.106;2023-10-19T10:19:53;6.60;;;2.23;;
4486;SDS011;2256;48.740;9.106;2023-10-19T10:22:22;3.40;;;2.27;;
4486;SDS011;2256;48.740;9.106;2023-10-19T10:24:53;4.87;;;2.73;;
4486;SDS011;2256;48.740;9.106;2023-10-19T10:27:21;3.77;;;1.97;;
4486;SDS011;2256;48.740;9.106;2023-10-19T10:29:55;4.20;;;2.50;;
4486;SDS011;2256;48.740;9.106;2023-10-19T10:38:13;3.73;;;2.10;;
4486;SDS011;2256;48.740;9.106;2023-10-19T10:40:42;5.53;;;2.37;;
4486;SDS011;2256;48.740;9.106;2023-10-19T10:43:09;5.50;;;2.30;;
4486;SDS011;2256;48.740;9.106;2023-10-19T10:45:37;5.23;;;1.67;;
4486;SDS011;2256;48.740;9.106;2023-10-19T10:48:05;3.00;;;1.70;;
4486;SDS011;2256;48.740;9.106;2023-10-19T10:50:38;3.60;;;1.73;;
4486;SDS011;2256;48.740;9.106;2023-10-19T10:53:06;3.60;;;2.03;;
4486;SDS011;2256;48.740;9.106;2023-10-19T10:55:33;2.33;;;1.90;;
4486;SDS011;2256;48.740;9.106;2023-10-19T10:58:00;3.50;;;2.30;;
4486;SDS011;2256;48.740;9.106;2023-10-19T11:00:27;4.60;;;2.27;;
4486;SDS011;2256;48.740;9.106;2023-10-19T11:02:59;8.73;;;2.03;;
4486;SDS011;2256;48.740;9.106;2023-10-19T11:05:30;3.17;;;2.43;;
4486;SDS011;2256;48.740;9.106;2023-10-19T11:08:03;4.83;;;1.87;;
4486;SDS011;2256;48.740;9.106;2023-10-19T11:10:33;8.93;;;2.67;;
4486;SDS011;2256;48.740;9.106;2023-10-19T11:13:01;5.30;;;2.00;;
4486;SDS011;2256;48.740;9.106;2023-10-19T11:15:28;6.90;;;2.37;;
4486;SDS011;2256;48.740;9.106;2023-10-19T11:17:55;4.47;;;2.20;;
4486;SDS011;2256;48.740;9.106;2023-10-19T11:20:23;7.33;;;2.50;;
4486;SDS011;2256;48.740;9.106;2023-10-19T11:22:53;4.27;;;2.77;;
4486;SDS011;2256;48.740;9.106;2023-10-19T11:25:22;5.73;;;2.30;;
4486;SDS011;2256;48.740;9.106;2023-10-19T11:27:53;3.10;;;2.00;;
4486;SDS011;2256;48.740;9.106;2023-10-19T11:30:23;5.17;;;2.53;;
4486;SDS011;2256;48.740;9.106;2023-10-19T11:32:51;13.83;;;2.63;;
4486;SDS011;2256;48.740;9.106;2023-10-19T11:35:22;6.70;;;2.43;;
4486;SDS011;2256;48.740;9.106;2023-10-19T11:37:50;6.10;;;2.70;;
4486;SDS011;2256;48.740;9.106;2023-10-19T11:40:20;7.40;;;2.43;;
4486;SDS011;2256;48.740;9.106;2023-10-19T11:42:47;9.03;;;2.60;;
4486;SDS011;2256;48.740;9.106;2023-10-19T11:45:15;3.60;;;2.60;;
4486;SDS011;2256;48.740;9.106;2023-10-19T11:47:42;7.90;;;3.03;;
4486;SDS011;2256;48.740;9.106;2023-10-19T11:50:10;16.03;;;2.80;;
4486;SDS011;2256;48.740;9.106;2023-10-19T11:52:39;5.23;;;2.37;;
4486;SDS011;2256;48.740;9.106;2023-10-19T11:55:06;4.43;;;2.80;;
4486;SDS011;2256;48.740;9.106;2023-10-19T11:57:35;3.83;;;2.30;;
4486;SDS011;2256;48.740;9.106;2023-10-19T12:00:02;4.30;;;2.60;;
4486;SDS011;2256;48.740;9.106;2023-10-19T12:02:34;3.10;;;2.30;;
4486;SDS011;2256;48.740;9.106;2023-10-19T12:05:03;3.07;;;2.30;;
4486;SDS011;2256;48.740;9.106;2023-10-19T12:07:34;8.83;;;2.80;;
4486;SDS011;2256;48.740;9.106;2023-10-19T12:10:02;3.07;;;2.27;;
4486;SDS011;2256;48.740;9.106;2023-10-19T12:12:29;10.63;;;4.57;;
4486;SDS011;2256;48.740;9.106;2023-10-19T12:14:58;11.50;;;6.53;;
4486;SDS011;2256;48.740;9.106;2023-10-19T12:17:30;5.83;;;3.57;;
4486;SDS011;2256;48.740;9.106;2023-10-19T12:19:57;8.50;;;5.20;;
4486;SDS011;2256;48.740;9.106;2023-10-19T12:22:24;7.33;;;4.50;;
4486;SDS011;2256;48.740;9.106;2023-10-19T12:24:53;10.73;;;5.20;;
4486;SDS011;2256;48.740;9.106;2023-10-19T12:27:21;5.03;;;2.83;;
4486;SDS011;2256;48.740;9.106;2023-10-19T12:29:49;7.50;;;4.13;;
4486;SDS011;2256;48.740;9.106;2023-10-19T12:32:18;7.10;;;3.53;;
4486;SDS011;2256;48.740;9.106;2023-10-19T12:34:45;13.43;;;5.00;;
4486;SDS011;2256;48.740;9.106;2023-10-19T12:37:15;11.43;;;5.53;;
4486;SDS011;2256;48.740;9.106;2023-10-19T12:39:43;9.40;;;4.90;;
4486;SDS011;2256;48.740;9.106;2023-10-19T12:42:27;6.43;;;4.15;;
4486;SDS011;2256;48.740;9.106;2023-10-19T12:44:54;16.30;;;4.40;;
4486;SDS011;2256;48.740;9.106;2023-10-19T12:47:22;14.17;;;5.30;;
4486;SDS011;2256;48.740;9.106;2023-10-19T12:49:49;19.33;;;4.73;;
4486;SDS011;2256;48.740;9.106;2023-10-19T12:52:16;13.30;;;4.83;;
4486;SDS011;2256;48.740;9.106;2023-10-19T12:54:42;12.37;;;4.73;;
4486;SDS011;2256;48.740;9.106;2023-10-19T12:57:13;8.90;;;5.23;;
4486;SDS011;2256;48.740;9.106;2023-10-19T12:59:40;12.67;;;4.20;;
4486;SDS011;2256;48.740;9.106;2023-10-19T13:02:08;6.70;;;4.07;;
4486;SDS011;2256;48.740;9.106;2023-10-19T13:04:41;8.13;;;4.03;;
4486;SDS011;2256;48.740;9.106;2023-10-19T13:07:11;7.90;;;4.17;;
4486;SDS011;2256;48.740;9.106;2023-10-19T13:09:38;7.10;;;4.43;;
4486;SDS011;2256;48.740;9.106;2023-10-19T13:12:05;10.53;;;4.70;;
4486;SDS011;2256;48.740;9.106;2023-10-19T13:14:33;10.13;;;4.27;;
4486;SDS011;2256;48.740;9.106;2023-10-19T13:17:00;10.10;;;4.87;;
4486;SDS011;2256;48.740;9.106;2023-10-19T13:19:26;11.57;;;4.63;;
4486;SDS011;2256;48.740;9.106;2023-10-19T13:21:55;6.97;;;4.27;;
4486;SDS011;2256;48.740;9.106;2023-10-19T13:24:26;10.63;;;4.33;;
4486;SDS011;2256;48.740;9.106;2023-10-19T13:26:53;7.37;;;4.67;;
4486;SDS011;2256;48.740;9.106;2023-10-19T13:29:19;12.80;;;4.67;;
4486;SDS011;2256;48.740;9.106;2023-10-19T13:31:48;9.50;;;4.23;;
4486;SDS011;2256;48.740;9.106;2023-10-19T13:34:17;11.37;;;5.30;;
4486;SDS011;2256;48.740;9.106;2023-10-19T13:36:43;9.60;;;4.97;;
4486;SDS011;2256;48.740;9.106;2023-10-19T13:39:13;7.57;;;4.37;;
4486;SDS011;2256;48.740;9.106;2023-10-19T13:41:41;7.13;;;4.37;;
4486;SDS011;2256;48.740;9.106;2023-10-19T13:44:08;5.60;;;3.67;;
4486;SDS011;2256;48.740;9.106;2023-10-19T13:46:37;7.23;;;3.33;;
4486;SDS011;2256;48.740;9.106;2023-10-19T13:49:04;7.50;;;4.00;;
4486;SDS011;2256;48.740;9.106;2023-10-19T13:51:31;7.30;;;3.80;;
4486;SDS011;2256;48.740;9.106;2023-10-19T13:53:58;11.60;;;4.33;;
4486;SDS011;2256;48.740;9.106;2023-10-19T13:56:26;9.93;;;4.13;;
4486;SDS011;2256;48.740;9.106;2023-10-19T13:58:53;8.07;;;4.33;;
4486;SDS011;2256;48.740;9.106;2023-10-19T14:01:20;8.27;;;4.47;;
4486;SDS011;2256;48.740;9.106;2023-10-19T14:03:51;6.90;;;4.30;;
4486;SDS011;2256;48.740;9.106;2023-10-19T14:06:20;5.53;;;4.07;;
4486;SDS011;2256;48.740;9.106;2023-10-19T14:08:47;6.87;;;4.20;;
4486;SDS011;2256;48.740;9.106;2023-10-19T14:11:14;5.80;;;4.20;;
4486;SDS011;2256;48.740;9.106;2023-10-19T14:13:42;7.57;;;3.73;;
4486;SDS011;2256;48.740;9.106;2023-10-19T14:16:10;6.37;;;4.00;;
4486;SDS011;2256;48.740;9.106;2023-10-19T14:18:37;9.70;;;4.03;;
4486;SDS011;2256;48.740;9.106;2023-10-19T14:21:10;6.77;;;3.90;;
4486;SDS011;2256;48.740;9.106;2023-10-19T14:23:38;8.27;;;4.17;;
4486;SDS011;2256;48.740;9.106;2023-10-19T14:26:06;9.70;;;3.83;;
4486;SDS011;2256;48.740;9.106;2023-10-19T14:28:34;8.23;;;4.43;;
4486;SDS011;2256;48.740;9.106;2023-10-19T14:31:03;7.40;;;3.80;;
4486;SDS011;2256;48.740;9.106;2023-10-19T14:33:32;7.93;;;3.93;;
4486;SDS011;2256;48.740;9.106;2023-10-19T14:36:00;7.83;;;3.70;;
4486;SDS011;2256;48.740;9.106;2023-10-19T14:38:28;9.63;;;5.73;;
4486;SDS011;2256;48.740;9.106;2023-10-19T14:40:55;23.30;;;8.90;;
4486;SDS011;2256;48.740;9.106;2023-10-19T14:43:22;18.47;;;10.73;;
4486;SDS011;2256;48.740;9.106;2023-10-19T14:45:51;25.20;;;11.73;;
4486;SDS011;2256;48.740;9.106;2023-10-19T14:48:19;19.60;;;10.40;;
4486;SDS011;2256;48.740;9.106;2023-10-19T14:50:45;20.43;;;10.20;;
4486;SDS011;2256;48.740;9.106;2023-10-19T14:53:15;21.27;;;10.30;;
4486;SDS011;2256;48.740;9.106;2023-10-19T14:55:43;19.20;;;11.00;;
4486;SDS011;2256;48.740;9.106;2023-10-19T14:58:09;21.20;;;10.87;;
4486;SDS011;2256;48.740;9.106;2023-10-19T15:00:37;21.50;;;11.67;;
4486;SDS011;2256;48.740;9.106;2023-10-19T15:03:07;25.10;;;12.23;;
4486;SDS011;2256;48.740;9.106;2023-10-19T15:05:35;27.73;;;12.43;;
4486;SDS011;2256;48.740;9.106;2023-10-19T15:08:03;26.53;;;12.87;;
4486;SDS011;2256;48.740;9.106;2023-10-19T15:10:31;22.77;;;12.80;;
4486;SDS011;2256;48.740;9.106;2023-10-19T15:12:58;29.07;;;12.70;;
4486;SDS011;2256;48.740;9.106;2023-10-19T15:15:26;31.07;;;14.50;;
4486;SDS011;2256;48.740;9.106;2023-10-19T15:17:54;28.93;;;12.63;;
4486;SDS011;2256;48.740;9.106;2023-10-19T15:20:21;29.97;;;13.97;;
4486;SDS011;2256;48.740;9.106;2023-10-19T15:22:52;22.27;;;12.50;;
4486;SDS011;2256;48.740;9.106;2023-10-19T15:25:19;28.63;;;12.63;;
4486;SDS011;2256;48.740;9.106;2023-10-19T15:27:49;22.77;;;12.60;;